sensor_id;sensor_type;location;lat;lon;timestamp;temperature;humidity
37232;DHT22;23125;48.156;15.954;2023-04-23T00:00:23;15.90;48.10
37232;DHT22;23125;48.156;15.954;2023-04-23T00:02:51;15.80;48.20
37232;DHT22;23125;48.156;15.954;2023-04-23T00:05:19;15.80;48.40
37232;DHT22;23125;48.156;15.954;2023-04-23T00:07:45;15.70;48.50
37232;DHT22;23125;48.156;15.954;2023-04-23T00:10:11;15.70;48.50
37232;DHT22;23125;48.156;15.954;2023-04-23T00:12:38;15.70;48.70
37232;DHT22;23125;48.156;15.954;2023-04-23T00:15:05;15.60;48.80
37232;DHT22;23125;48.156;15.954;2023-04-23T00:17:31;15.60;48.90
37232;DHT22;23125;48.156;15.954;2023-04-23T00:19:57;15.50;48.90
37232;DHT22;23125;48.156;15.954;2023-04-23T00:22:23;15.50;49.00
37232;DHT22;23125;48.156;15.954;2023-04-23T00:24:49;15.40;49.00
37232;DHT22;23125;48.156;15.954;2023-04-23T00:27:15;15.40;49.00
37232;DHT22;23125;48.156;15.954;2023-04-23T00:29:42;15.30;48.90
37232;DHT22;23125;48.156;15.954;2023-04-23T00:32:10;15.30;49.00
37232;DHT22;23125;48.156;15.954;2023-04-23T00:34:36;15.20;49.10
37232;DHT22;23125;48.156;15.954;2023-04-23T00:37:02;15.10;49.30
37232;DHT22;23125;48.156;15.954;2023-04-23T00:39:31;15.00;49.30
37232;DHT22;23125;48.156;15.954;2023-04-23T00:41:57;15.00;49.40
37232;DHT22;23125;48.156;15.954;2023-04-23T00:44:25;15.00;49.50
37232;DHT22;23125;48.156;15.954;2023-04-23T00:46:51;14.90;49.50
37232;DHT22;23125;48.156;15.954;2023-04-23T00:49:18;14.80;49.40
37232;DHT22;23125;48.156;15.954;2023-04-23T00:51:46;14.70;49.50
37232;DHT22;23125;48.156;15.954;2023-04-23T00:54:12;14.70;49.70
37232;DHT22;23125;48.156;15.954;2023-04-23T00:56:39;14.60;50.00
37232;DHT22;23125;48.156;15.954;2023-04-23T00:59:05;14.60;50.10
37232;DHT22;23125;48.156;15.954;2023-04-23T01:01:31;14.60;50.20
37232;DHT22;23125;48.156;15.954;2023-04-23T01:03:58;14.50;50.10
37232;DHT22;23125;48.156;15.954;2023-04-23T01:06:25;14.50;50.30
37232;DHT22;23125;48.156;15.954;2023-04-23T01:08:53;14.40;50.30
37232;DHT22;23125;48.156;15.954;2023-04-23T01:11:19;14.40;50.40
37232;DHT22;23125;48.156;15.954;2023-04-23T01:13:45;14.40;50.50
37232;DHT22;23125;48.156;15.954;2023-04-23T01:16:11;14.30;50.40
37232;DHT22;23125;48.156;15.954;2023-04-23T01:18:37;14.30;50.50
37232;DHT22;23125;48.156;15.954;2023-04-23T01:21:05;14.30;50.60
37232;DHT22;23125;48.156;15.954;2023-04-23T01:23:31;14.20;50.60
37232;DHT22;23125;48.156;15.954;2023-04-23T01:25:57;14.10;50.60
37232;DHT22;23125;48.156;15.954;2023-04-23T01:28:24;14.10;50.70
37232;DHT22;23125;48.156;15.954;2023-04-23T01:30:50;14.10;50.80
37232;DHT22;23125;48.156;15.954;2023-04-23T01:33:17;14.10;50.70
37232;DHT22;23125;48.156;15.954;2023-04-23T01:35:44;14.00;50.80
37232;DHT22;23125;48.156;15.954;2023-04-23T01:38:10;13.90;50.80
37232;DHT22;23125;48.156;15.954;2023-04-23T01:40:38;13.90;50.90
37232;DHT22;23125;48.156;15.954;2023-04-23T01:43:05;13.90;50.90
37232;DHT22;23125;48.156;15.954;2023-04-23T01:45:31;13.80;50.90
37232;DHT22;23125;48.156;15.954;2023-04-23T01:47:59;13.80;51.10
37232;DHT22;23125;48.156;15.954;2023-04-23T01:50:25;13.70;51.10
37232;DHT22;23125;48.156;15.954;2023-04-23T01:52:53;13.60;51.20
37232;DHT22;23125;48.156;15.954;2023-04-23T01:55:20;13.60;51.30
37232;DHT22;23125;48.156;15.954;2023-04-23T01:57:46;13.60;51.40
37232;DHT22;23125;48.156;15.954;2023-04-23T02:00:14;13.50;51.60
37232;DHT22;23125;48.156;15.954;2023-04-23T02:02:42;13.50;51.50
37232;DHT22;23125;48.156;15.954;2023-04-23T02:05:11;13.40;51.60
37232;DHT22;23125;48.156;15.954;2023-04-23T02:07:37;13.40;51.60
37232;DHT22;23125;48.156;15.954;2023-04-23T02:10:04;13.40;51.50
37232;DHT22;23125;48.156;15.954;2023-04-23T02:12:30;13.30;51.50
37232;DHT22;23125;48.156;15.954;2023-04-23T02:14:56;13.20;51.70
37232;DHT22;23125;48.156;15.954;2023-04-23T02:17:22;13.20;51.80
37232;DHT22;23125;48.156;15.954;2023-04-23T02:19:48;13.20;51.90
37232;DHT22;23125;48.156;15.954;2023-04-23T02:22:16;13.20;52.00
37232;DHT22;23125;48.156;15.954;2023-04-23T02:24:42;13.10;52.00
37232;DHT22;23125;48.156;15.954;2023-04-23T02:27:09;13.10;52.00
37232;DHT22;23125;48.156;15.954;2023-04-23T02:29:35;13.00;52.40
37232;DHT22;23125;48.156;15.954;2023-04-23T02:32:02;13.00;52.00
37232;DHT22;23125;48.156;15.954;2023-04-23T02:34:29;12.90;52.10
37232;DHT22;23125;48.156;15.954;2023-04-23T02:36:55;12.90;52.30
37232;DHT22;23125;48.156;15.954;2023-04-23T02:39:21;12.80;52.30
37232;DHT22;23125;48.156;15.954;2023-04-23T02:41:47;12.80;52.30
37232;DHT22;23125;48.156;15.954;2023-04-23T02:44:13;12.70;52.40
37232;DHT22;23125;48.156;15.954;2023-04-23T02:46:39;12.70;52.40
37232;DHT22;23125;48.156;15.954;2023-04-23T02:49:05;12.70;52.50
37232;DHT22;23125;48.156;15.954;2023-04-23T02:51:31;12.70;52.60
37232;DHT22;23125;48.156;15.954;2023-04-23T02:53:58;12.60;52.40
37232;DHT22;23125;48.156;15.954;2023-04-23T02:56:24;12.60;52.40
37232;DHT22;23125;48.156;15.954;2023-04-23T02:58:50;12.50;52.50
37232;DHT22;23125;48.156;15.954;2023-04-23T03:01:16;12.50;52.70
37232;DHT22;23125;48.156;15.954;2023-04-23T03:03:41;12.40;52.70
37232;DHT22;23125;48.156;15.954;2023-04-23T03:06:07;12.40;52.70
37232;DHT22;23125;48.156;15.954;2023-04-23T03:08:38;12.40;52.80
37232;DHT22;23125;48.156;15.954;2023-04-23T03:11:05;12.30;53.60
37232;DHT22;23125;48.156;15.954;2023-04-23T03:13:31;12.30;53.00
37232;DHT22;23125;48.156;15.954;2023-04-23T03:15:57;12.20;53.00
37232;DHT22;23125;48.156;15.954;2023-04-23T03:18:22;12.20;53.10
37232;DHT22;23125;48.156;15.954;2023-04-23T03:20:48;12.20;53.30
37232;DHT22;23125;48.156;15.954;2023-04-23T03:23:14;12.20;53.30
37232;DHT22;23125;48.156;15.954;2023-04-23T03:25:40;12.20;53.30
37232;DHT22;23125;48.156;15.954;2023-04-23T03:28:06;12.10;53.20
37232;DHT22;23125;48.156;15.954;2023-04-23T03:30:33;12.10;53.30
37232;DHT22;23125;48.156;15.954;2023-04-23T03:32:59;12.10;53.30
37232;DHT22;23125;48.156;15.954;2023-04-23T03:35:27;12.00;53.40
37232;DHT22;23125;48.156;15.954;2023-04-23T03:37:53;12.00;53.40
37232;DHT22;23125;48.156;15.954;2023-04-23T03:40:20;12.00;53.40
37232;DHT22;23125;48.156;15.954;2023-04-23T03:42:47;12.00;53.60
37232;DHT22;23125;48.156;15.954;2023-04-23T03:45:14;11.90;53.60
37232;DHT22;23125;48.156;15.954;2023-04-23T03:47:41;11.90;53.70
37232;DHT22;23125;48.156;15.954;2023-04-23T03:50:08;11.90;53.60
37232;DHT22;23125;48.156;15.954;2023-04-23T03:52:34;11.80;53.70
37232;DHT22;23125;48.156;15.954;2023-04-23T03:55:01;11.80;53.70
37232;DHT22;23125;48.156;15.954;2023-04-23T03:57:27;11.80;53.60
37232;DHT22;23125;48.156;15.954;2023-04-23T03:59:53;11.70;53.60
37232;DHT22;23125;48.156;15.954;2023-04-23T04:02:19;11.70;53.70
37232;DHT22;23125;48.156;15.954;2023-04-23T04:04:46;11.60;53.90
37232;DHT22;23125;48.156;15.954;2023-04-23T04:07:14;11.60;54.10
37232;DHT22;23125;48.156;15.954;2023-04-23T04:09:40;11.60;54.20
37232;DHT22;23125;48.156;15.954;2023-04-23T04:12:06;11.60;54.30
37232;DHT22;23125;48.156;15.954;2023-04-23T04:14:32;11.60;54.30
37232;DHT22;23125;48.156;15.954;2023-04-23T04:16:58;11.60;54.30
37232;DHT22;23125;48.156;15.954;2023-04-23T04:19:24;11.70;54.40
37232;DHT22;23125;48.156;15.954;2023-04-23T04:21:50;11.60;54.30
37232;DHT22;23125;48.156;15.954;2023-04-23T04:24:17;11.60;54.30
37232;DHT22;23125;48.156;15.954;2023-04-23T04:26:44;11.60;54.50
37232;DHT22;23125;48.156;15.954;2023-04-23T04:29:10;11.60;54.50
37232;DHT22;23125;48.156;15.954;2023-04-23T04:31:36;11.60;54.50
37232;DHT22;23125;48.156;15.954;2023-04-23T04:34:02;11.60;54.70
37232;DHT22;23125;48.156;15.954;2023-04-23T04:36:29;11.70;55.30
37232;DHT22;23125;48.156;15.954;2023-04-23T04:38:56;11.70;54.80
37232;DHT22;23125;48.156;15.954;2023-04-23T04:41:26;11.70;54.90
37232;DHT22;23125;48.156;15.954;2023-04-23T04:43:53;11.70;54.80
37232;DHT22;23125;48.156;15.954;2023-04-23T04:46:23;11.70;54.90
37232;DHT22;23125;48.156;15.954;2023-04-23T04:48:51;11.70;55.00
37232;DHT22;23125;48.156;15.954;2023-04-23T04:51:17;11.70;55.20
37232;DHT22;23125;48.156;15.954;2023-04-23T04:53:42;11.80;55.20
37232;DHT22;23125;48.156;15.954;2023-04-23T04:56:10;11.80;55.30
37232;DHT22;23125;48.156;15.954;2023-04-23T04:58:38;11.80;55.40
37232;DHT22;23125;48.156;15.954;2023-04-23T05:01:04;11.90;55.50
37232;DHT22;23125;48.156;15.954;2023-04-23T05:03:31;11.90;55.50
37232;DHT22;23125;48.156;15.954;2023-04-23T05:05:57;11.90;55.60
37232;DHT22;23125;48.156;15.954;2023-04-23T05:08:24;12.00;55.80
37232;DHT22;23125;48.156;15.954;2023-04-23T05:10:50;12.00;55.80
37232;DHT22;23125;48.156;15.954;2023-04-23T05:13:16;12.10;55.90
37232;DHT22;23125;48.156;15.954;2023-04-23T05:15:42;12.10;55.90
37232;DHT22;23125;48.156;15.954;2023-04-23T05:18:09;12.20;56.00
37232;DHT22;23125;48.156;15.954;2023-04-23T05:20:36;12.20;56.00
37232;DHT22;23125;48.156;15.954;2023-04-23T05:23:03;12.30;56.10
37232;DHT22;23125;48.156;15.954;2023-04-23T05:25:29;12.30;56.10
37232;DHT22;23125;48.156;15.954;2023-04-23T05:27:56;12.40;56.30
37232;DHT22;23125;48.156;15.954;2023-04-23T05:30:22;12.40;57.00
37232;DHT22;23125;48.156;15.954;2023-04-23T05:32:49;12.60;57.50
37232;DHT22;23125;48.156;15.954;2023-04-23T05:35:15;13.00;59.00
37232;DHT22;23125;48.156;15.954;2023-04-23T05:37:41;13.40;59.60
37232;DHT22;23125;48.156;15.954;2023-04-23T05:40:07;13.80;59.70
37232;DHT22;23125;48.156;15.954;2023-04-23T05:42:35;14.20;59.70
37232;DHT22;23125;48.156;15.954;2023-04-23T05:45:02;14.60;60.00
37232;DHT22;23125;48.156;15.954;2023-04-23T05:47:28;15.00;59.90
37232;DHT22;23125;48.156;15.954;2023-04-23T05:49:54;15.30;59.20
37232;DHT22;23125;48.156;15.954;2023-04-23T05:52:23;15.80;60.20
37232;DHT22;23125;48.156;15.954;2023-04-23T05:54:50;16.60;61.60
37232;DHT22;23125;48.156;15.954;2023-04-23T05:57:17;17.40;61.70
37232;DHT22;23125;48.156;15.954;2023-04-23T05:59:43;18.20;61.20
37232;DHT22;23125;48.156;15.954;2023-04-23T06:02:11;19.00;60.30
37232;DHT22;23125;48.156;15.954;2023-04-23T06:04:37;19.60;58.70
37232;DHT22;23125;48.156;15.954;2023-04-23T06:07:03;20.30;58.10
37232;DHT22;23125;48.156;15.954;2023-04-23T06:09:29;21.00;57.40
37232;DHT22;23125;48.156;15.954;2023-04-23T06:11:55;21.70;56.80
37232;DHT22;23125;48.156;15.954;2023-04-23T06:14:21;22.40;55.80
37232;DHT22;23125;48.156;15.954;2023-04-23T06:16:47;22.80;53.70
37232;DHT22;23125;48.156;15.954;2023-04-23T06:19:13;23.00;51.90
37232;DHT22;23125;48.156;15.954;2023-04-23T06:21:39;23.30;52.20
37232;DHT22;23125;48.156;15.954;2023-04-23T06:24:05;23.80;52.20
37232;DHT22;23125;48.156;15.954;2023-04-23T06:26:32;24.40;51.70
37232;DHT22;23125;48.156;15.954;2023-04-23T06:28:59;24.90;50.90
37232;DHT22;23125;48.156;15.954;2023-04-23T06:31:25;25.40;49.90
37232;DHT22;23125;48.156;15.954;2023-04-23T06:33:51;26.00;49.20
37232;DHT22;23125;48.156;15.954;2023-04-23T06:36:17;26.50;48.50
37232;DHT22;23125;48.156;15.954;2023-04-23T06:38:43;26.90;47.70
37232;DHT22;23125;48.156;15.954;2023-04-23T06:41:10;27.40;46.80
37232;DHT22;23125;48.156;15.954;2023-04-23T06:43:37;27.80;45.70
37232;DHT22;23125;48.156;15.954;2023-04-23T06:46:04;28.10;44.90
37232;DHT22;23125;48.156;15.954;2023-04-23T06:48:29;28.50;44.40
37232;DHT22;23125;48.156;15.954;2023-04-23T06:50:57;28.80;43.50
37232;DHT22;23125;48.156;15.954;2023-04-23T06:53:23;29.10;42.90
37232;DHT22;23125;48.156;15.954;2023-04-23T06:55:49;29.30;42.10
37232;DHT22;23125;48.156;15.954;2023-04-23T06:58:16;29.50;41.30
37232;DHT22;23125;48.156;15.954;2023-04-23T07:00:43;29.70;40.90
37232;DHT22;23125;48.156;15.954;2023-04-23T07:03:09;30.00;40.50
37232;DHT22;23125;48.156;15.954;2023-04-23T07:05:34;30.30;39.90
37232;DHT22;23125;48.156;15.954;2023-04-23T07:08:00;30.60;39.50
37232;DHT22;23125;48.156;15.954;2023-04-23T07:10:26;30.90;38.90
37232;DHT22;23125;48.156;15.954;2023-04-23T07:12:52;31.10;38.30
37232;DHT22;23125;48.156;15.954;2023-04-23T07:15:19;31.30;37.60
37232;DHT22;23125;48.156;15.954;2023-04-23T07:17:44;31.50;37.00
37232;DHT22;23125;48.156;15.954;2023-04-23T07:20:10;31.80;36.90
37232;DHT22;23125;48.156;15.954;2023-04-23T07:22:36;32.00;35.80
37232;DHT22;23125;48.156;15.954;2023-04-23T07:25:02;31.90;34.10
37232;DHT22;23125;48.156;15.954;2023-04-23T07:27:29;31.60;33.40
37232;DHT22;23125;48.156;15.954;2023-04-23T07:29:55;31.20;32.60
37232;DHT22;23125;48.156;15.954;2023-04-23T07:32:21;30.70;32.70
37232;DHT22;23125;48.156;15.954;2023-04-23T07:34:50;30.50;33.30
37232;DHT22;23125;48.156;15.954;2023-04-23T07:37:17;30.60;34.30
37232;DHT22;23125;48.156;15.954;2023-04-23T07:39:42;30.80;35.00
37232;DHT22;23125;48.156;15.954;2023-04-23T07:42:08;31.10;34.80
37232;DHT22;23125;48.156;15.954;2023-04-23T07:44:34;31.30;34.40
37232;DHT22;23125;48.156;15.954;2023-04-23T07:47:00;31.60;34.10
37232;DHT22;23125;48.156;15.954;2023-04-23T07:49:26;31.90;33.60
37232;DHT22;23125;48.156;15.954;2023-04-23T07:51:53;32.20;33.40
37232;DHT22;23125;48.156;15.954;2023-04-23T07:54:18;32.50;33.00
37232;DHT22;23125;48.156;15.954;2023-04-23T07:56:45;32.70;32.50
37232;DHT22;23125;48.156;15.954;2023-04-23T07:59:11;33.00;32.20
37232;DHT22;23125;48.156;15.954;2023-04-23T08:01:37;33.10;31.50
37232;DHT22;23125;48.156;15.954;2023-04-23T08:04:03;33.20;30.90
37232;DHT22;23125;48.156;15.954;2023-04-23T08:06:28;33.20;30.40
37232;DHT22;23125;48.156;15.954;2023-04-23T08:08:56;33.20;30.30
37232;DHT22;23125;48.156;15.954;2023-04-23T08:11:22;33.30;30.40
37232;DHT22;23125;48.156;15.954;2023-04-23T08:13:48;33.30;30.00
37232;DHT22;23125;48.156;15.954;2023-04-23T08:16:14;33.40;29.80
37232;DHT22;23125;48.156;15.954;2023-04-23T08:18:40;33.40;29.80
37232;DHT22;23125;48.156;15.954;2023-04-23T08:21:06;33.40;29.60
37232;DHT22;23125;48.156;15.954;2023-04-23T08:23:32;33.30;29.40
37232;DHT22;23125;48.156;15.954;2023-04-23T08:25:58;33.30;29.30
37232;DHT22;23125;48.156;15.954;2023-04-23T08:28:24;33.30;29.20
37232;DHT22;23125;48.156;15.954;2023-04-23T08:30:50;33.30;29.30
37232;DHT22;23125;48.156;15.954;2023-04-23T08:33:16;33.40;29.40
37232;DHT22;23125;48.156;15.954;2023-04-23T08:35:42;33.40;29.20
37232;DHT22;23125;48.156;15.954;2023-04-23T08:38:08;33.60;29.00
37232;DHT22;23125;48.156;15.954;2023-04-23T08:40:35;33.60;28.90
37232;DHT22;23125;48.156;15.954;2023-04-23T08:43:09;33.70;28.90
37232;DHT22;23125;48.156;15.954;2023-04-23T08:45:39;33.80;28.80
37232;DHT22;23125;48.156;15.954;2023-04-23T08:48:06;34.00;28.80
37232;DHT22;23125;48.156;15.954;2023-04-23T08:50:35;34.10;28.70
37232;DHT22;23125;48.156;15.954;2023-04-23T08:53:03;34.30;28.60
37232;DHT22;23125;48.156;15.954;2023-04-23T08:55:33;34.40;28.60
37232;DHT22;23125;48.156;15.954;2023-04-23T08:58:00;34.60;28.40
37232;DHT22;23125;48.156;15.954;2023-04-23T09:00:28;34.70;28.10
37232;DHT22;23125;48.156;15.954;2023-04-23T09:02:55;34.80;28.00
37232;DHT22;23125;48.156;15.954;2023-04-23T09:05:21;35.00;27.90
37232;DHT22;23125;48.156;15.954;2023-04-23T09:07:47;35.10;27.90
37232;DHT22;23125;48.156;15.954;2023-04-23T09:10:13;35.30;27.70
37232;DHT22;23125;48.156;15.954;2023-04-23T09:12:42;35.40;27.50
37232;DHT22;23125;48.156;15.954;2023-04-23T09:15:09;35.40;27.20
37232;DHT22;23125;48.156;15.954;2023-04-23T09:17:44;35.50;27.30
37232;DHT22;23125;48.156;15.954;2023-04-23T09:20:12;35.60;27.10
37232;DHT22;23125;48.156;15.954;2023-04-23T09:22:48;35.70;27.20
37232;DHT22;23125;48.156;15.954;2023-04-23T09:25:20;35.70;27.00
37232;DHT22;23125;48.156;15.954;2023-04-23T09:27:48;35.60;26.30
37232;DHT22;23125;48.156;15.954;2023-04-23T09:30:16;35.40;26.50
37232;DHT22;23125;48.156;15.954;2023-04-23T09:32:44;35.30;26.80
37232;DHT22;23125;48.156;15.954;2023-04-23T09:35:17;35.40;27.10
37232;DHT22;23125;48.156;15.954;2023-04-23T09:37:48;35.50;27.20
37232;DHT22;23125;48.156;15.954;2023-04-23T09:40:17;35.40;26.30
37232;DHT22;23125;48.156;15.954;2023-04-23T09:42:50;35.30;26.70
37232;DHT22;23125;48.156;15.954;2023-04-23T09:45:20;35.20;26.40
37232;DHT22;23125;48.156;15.954;2023-04-23T09:47:53;35.10;26.50
37232;DHT22;23125;48.156;15.954;2023-04-23T09:50:40;35.20;26.50
37232;DHT22;23125;48.156;15.954;2023-04-23T09:53:07;34.80;26.20
37232;DHT22;23125;48.156;15.954;2023-04-23T09:55:35;34.80;26.60
37232;DHT22;23125;48.156;15.954;2023-04-23T09:58:13;34.80;26.60
37232;DHT22;23125;48.156;15.954;2023-04-23T10:00:41;34.70;26.60
37232;DHT22;23125;48.156;15.954;2023-04-23T10:03:08;34.60;26.60
37232;DHT22;23125;48.156;15.954;2023-04-23T10:05:41;34.60;26.80
37232;DHT22;23125;48.156;15.954;2023-04-23T10:08:08;34.60;26.70
37232;DHT22;23125;48.156;15.954;2023-04-23T10:10:34;34.60;26.70
37232;DHT22;23125;48.156;15.954;2023-04-23T10:13:01;34.50;26.70
37232;DHT22;23125;48.156;15.954;2023-04-23T10:15:27;34.40;26.70
37232;DHT22;23125;48.156;15.954;2023-04-23T10:17:53;34.40;26.70
37232;DHT22;23125;48.156;15.954;2023-04-23T10:20:24;34.30;26.60
37232;DHT22;23125;48.156;15.954;2023-04-23T10:22:52;34.10;26.60
37232;DHT22;23125;48.156;15.954;2023-04-23T10:25:20;33.90;26.80
37232;DHT22;23125;48.156;15.954;2023-04-23T10:27:49;33.80;26.40
37232;DHT22;23125;48.156;15.954;2023-04-23T10:30:17;33.50;26.60
37232;DHT22;23125;48.156;15.954;2023-04-23T10:32:47;33.20;26.40
37232;DHT22;23125;48.156;15.954;2023-04-23T10:35:14;32.60;26.00
37232;DHT22;23125;48.156;15.954;2023-04-23T10:37:40;32.20;26.60
37232;DHT22;23125;48.156;15.954;2023-04-23T10:40:12;31.90;27.20
37232;DHT22;23125;48.156;15.954;2023-04-23T10:42:45;31.70;27.60
37232;DHT22;23125;48.156;15.954;2023-04-23T10:45:15;31.60;28.00
37232;DHT22;23125;48.156;15.954;2023-04-23T10:47:42;31.50;27.90
37232;DHT22;23125;48.156;15.954;2023-04-23T10:50:29;31.30;27.90
37232;DHT22;23125;48.156;15.954;2023-04-23T10:53:01;31.20;28.00
37232;DHT22;23125;48.156;15.954;2023-04-23T10:55:29;31.00;28.00
37232;DHT22;23125;48.156;15.954;2023-04-23T10:58:00;30.90;28.60
37232;DHT22;23125;48.156;15.954;2023-04-23T11:00:27;30.70;28.40
37232;DHT22;23125;48.156;15.954;2023-04-23T11:02:53;30.50;28.70
37232;DHT22;23125;48.156;15.954;2023-04-23T11:05:21;30.40;29.00
37232;DHT22;23125;48.156;15.954;2023-04-23T11:08:07;30.20;28.80
37232;DHT22;23125;48.156;15.954;2023-04-23T11:10:52;30.00;29.10
37232;DHT22;23125;48.156;15.954;2023-04-23T11:13:22;29.90;29.20
37232;DHT22;23125;48.156;15.954;2023-04-23T11:18:55;29.90;29.80
37232;DHT22;23125;48.156;15.954;2023-04-23T11:21:21;29.80;29.90
37232;DHT22;23125;48.156;15.954;2023-04-23T11:23:47;29.70;29.60
37232;DHT22;23125;48.156;15.954;2023-04-23T11:26:17;29.60;29.80
37232;DHT22;23125;48.156;15.954;2023-04-23T11:28:44;29.50;30.00
37232;DHT22;23125;48.156;15.954;2023-04-23T11:31:11;29.50;30.20
37232;DHT22;23125;48.156;15.954;2023-04-23T11:33:37;29.40;30.50
37232;DHT22;23125;48.156;15.954;2023-04-23T11:36:04;29.40;30.90
37232;DHT22;23125;48.156;15.954;2023-04-23T11:38:33;29.40;31.00
37232;DHT22;23125;48.156;15.954;2023-04-23T11:41:01;29.50;31.30
37232;DHT22;23125;48.156;15.954;2023-04-23T11:43:28;29.50;30.80
37232;DHT22;23125;48.156;15.954;2023-04-23T11:45:54;29.40;30.70
37232;DHT22;23125;48.156;15.954;2023-04-23T11:48:21;29.30;31.00
37232;DHT22;23125;48.156;15.954;2023-04-23T11:50:48;29.30;31.60
37232;DHT22;23125;48.156;15.954;2023-04-23T11:53:14;29.40;31.80
37232;DHT22;23125;48.156;15.954;2023-04-23T11:55:41;29.40;31.80
37232;DHT22;23125;48.156;15.954;2023-04-23T11:58:08;29.40;32.10
37232;DHT22;23125;48.156;15.954;2023-04-23T12:00:35;29.50;31.60
37232;DHT22;23125;48.156;15.954;2023-04-23T12:03:03;29.40;31.70
37232;DHT22;23125;48.156;15.954;2023-04-23T12:05:32;29.40;31.70
37232;DHT22;23125;48.156;15.954;2023-04-23T12:08:09;29.30;31.70
37232;DHT22;23125;48.156;15.954;2023-04-23T12:10:52;29.30;31.80
37232;DHT22;23125;48.156;15.954;2023-04-23T12:13:22;29.30;31.60
37232;DHT22;23125;48.156;15.954;2023-04-23T12:15:53;29.20;31.40
37232;DHT22;23125;48.156;15.954;2023-04-23T12:18:37;29.10;31.80
37232;DHT22;23125;48.156;15.954;2023-04-23T12:21:11;28.90;31.70
37232;DHT22;23125;48.156;15.954;2023-04-23T12:23:39;28.90;32.00
37232;DHT22;23125;48.156;15.954;2023-04-23T12:26:14;28.80;32.00
37232;DHT22;23125;48.156;15.954;2023-04-23T12:31:20;28.80;31.80
37232;DHT22;23125;48.156;15.954;2023-04-23T12:33:46;28.70;31.80
37232;DHT22;23125;48.156;15.954;2023-04-23T12:36:14;28.60;31.80
37232;DHT22;23125;48.156;15.954;2023-04-23T12:38:43;28.60;32.10
37232;DHT22;23125;48.156;15.954;2023-04-23T12:41:09;28.60;32.20
37232;DHT22;23125;48.156;15.954;2023-04-23T12:43:35;28.60;32.20
37232;DHT22;23125;48.156;15.954;2023-04-23T12:46:01;28.60;31.90
37232;DHT22;23125;48.156;15.954;2023-04-23T12:48:27;28.50;31.40
37232;DHT22;23125;48.156;15.954;2023-04-23T12:50:53;28.30;31.40
37232;DHT22;23125;48.156;15.954;2023-04-23T12:53:19;28.30;32.00
37232;DHT22;23125;48.156;15.954;2023-04-23T12:55:45;28.30;31.70
37232;DHT22;23125;48.156;15.954;2023-04-23T12:58:13;28.30;31.90
37232;DHT22;23125;48.156;15.954;2023-04-23T13:00:39;28.30;31.80
37232;DHT22;23125;48.156;15.954;2023-04-23T13:03:05;28.30;31.50
37232;DHT22;23125;48.156;15.954;2023-04-23T13:05:30;28.30;31.60
37232;DHT22;23125;48.156;15.954;2023-04-23T13:07:56;28.30;31.20
37232;DHT22;23125;48.156;15.954;2023-04-23T13:10:22;28.30;31.30
37232;DHT22;23125;48.156;15.954;2023-04-23T13:12:48;28.20;31.00
37232;DHT22;23125;48.156;15.954;2023-04-23T13:15:14;28.10;30.90
37232;DHT22;23125;48.156;15.954;2023-04-23T13:17:40;28.00;30.90
37232;DHT22;23125;48.156;15.954;2023-04-23T13:20:06;28.00;31.20
37232;DHT22;23125;48.156;15.954;2023-04-23T13:22:33;27.90;31.30
37232;DHT22;23125;48.156;15.954;2023-04-23T13:24:59;27.90;31.30
37232;DHT22;23125;48.156;15.954;2023-04-23T13:27:27;27.90;31.20
37232;DHT22;23125;48.156;15.954;2023-04-23T13:29:54;27.80;31.10
37232;DHT22;23125;48.156;15.954;2023-04-23T13:32:21;27.80;31.10
37232;DHT22;23125;48.156;15.954;2023-04-23T13:34:48;27.70;31.30
37232;DHT22;23125;48.156;15.954;2023-04-23T13:37:14;27.70;31.60
37232;DHT22;23125;48.156;15.954;2023-04-23T13:39:40;27.60;31.30
37232;DHT22;23125;48.156;15.954;2023-04-23T13:42:06;27.60;31.30
37232;DHT22;23125;48.156;15.954;2023-04-23T13:44:32;27.60;31.30
37232;DHT22;23125;48.156;15.954;2023-04-23T13:46:58;27.50;31.20
37232;DHT22;23125;48.156;15.954;2023-04-23T13:49:26;27.50;31.50
37232;DHT22;23125;48.156;15.954;2023-04-23T13:51:53;27.40;31.00
37232;DHT22;23125;48.156;15.954;2023-04-23T13:54:24;27.30;31.20
37232;DHT22;23125;48.156;15.954;2023-04-23T13:56:56;27.30;31.10
37232;DHT22;23125;48.156;15.954;2023-04-23T13:59:23;27.20;31.10
37232;DHT22;23125;48.156;15.954;2023-04-23T14:01:50;27.10;31.20
37232;DHT22;23125;48.156;15.954;2023-04-23T14:04:19;27.10;31.50
37232;DHT22;23125;48.156;15.954;2023-04-23T14:06:48;27.10;31.30
37232;DHT22;23125;48.156;15.954;2023-04-23T14:09:14;27.10;31.90
37232;DHT22;23125;48.156;15.954;2023-04-23T14:11:40;27.00;31.10
37232;DHT22;23125;48.156;15.954;2023-04-23T14:14:06;27.00;31.00
37232;DHT22;23125;48.156;15.954;2023-04-23T14:16:32;26.80;31.00
37232;DHT22;23125;48.156;15.954;2023-04-23T14:18:58;26.80;31.10
37232;DHT22;23125;48.156;15.954;2023-04-23T14:21:24;26.70;31.00
37232;DHT22;23125;48.156;15.954;2023-04-23T14:24:00;26.60;30.60
37232;DHT22;23125;48.156;15.954;2023-04-23T14:26:33;26.50;30.80
37232;DHT22;23125;48.156;15.954;2023-04-23T14:31:44;26.40;31.10
37232;DHT22;23125;48.156;15.954;2023-04-23T14:34:10;26.30;31.20
37232;DHT22;23125;48.156;15.954;2023-04-23T14:36:36;26.30;31.30
37232;DHT22;23125;48.156;15.954;2023-04-23T14:39:02;26.20;31.30
37232;DHT22;23125;48.156;15.954;2023-04-23T14:41:31;26.20;31.40
37232;DHT22;23125;48.156;15.954;2023-04-23T14:44:00;26.20;31.50
37232;DHT22;23125;48.156;15.954;2023-04-23T14:46:26;26.20;31.60
37232;DHT22;23125;48.156;15.954;2023-04-23T14:48:53;26.10;31.60
37232;DHT22;23125;48.156;15.954;2023-04-23T14:51:19;26.10;31.60
37232;DHT22;23125;48.156;15.954;2023-04-23T14:53:45;26.10;31.70
37232;DHT22;23125;48.156;15.954;2023-04-23T14:56:11;26.10;31.90
37232;DHT22;23125;48.156;15.954;2023-04-23T14:58:37;26.20;32.20
37232;DHT22;23125;48.156;15.954;2023-04-23T15:01:03;26.20;32.10
37232;DHT22;23125;48.156;15.954;2023-04-23T15:03:29;26.20;32.00
37232;DHT22;23125;48.156;15.954;2023-04-23T15:05:55;26.20;31.70
37232;DHT22;23125;48.156;15.954;2023-04-23T15:08:21;26.10;31.70
37232;DHT22;23125;48.156;15.954;2023-04-23T15:10:47;26.00;31.90
37232;DHT22;23125;48.156;15.954;2023-04-23T15:15:43;26.00;32.30
37232;DHT22;23125;48.156;15.954;2023-04-23T15:18:14;26.00;32.60
37232;DHT22;23125;48.156;15.954;2023-04-23T15:20:41;26.00;32.60
37232;DHT22;23125;48.156;15.954;2023-04-23T15:23:07;26.00;32.70
37232;DHT22;23125;48.156;15.954;2023-04-23T15:25:34;25.90;32.70